createdAt,value
2023-05-14T00:02:21.319Z,67.03
2023-05-14T00:07:23.310Z,66.97
2023-05-14T00:12:26.401Z,66.92
2023-05-14T00:17:28.262Z,66.90
2023-05-14T00:22:30.021Z,67.13
2023-05-14T00:27:31.867Z,67.27
2023-05-14T00:32:33.901Z,67.13
2023-05-14T00:37:36.474Z,67.45
2023-05-14T00:42:38.426Z,67.78
2023-05-14T00:47:41.026Z,67.66
2023-05-14T00:52:43.157Z,67.92
2023-05-14T00:57:45.336Z,67.66
2023-05-14T01:02:47.309Z,67.50
2023-05-14T01:08:05.366Z,67.92
2023-05-14T01:13:27.500Z,67.61
2023-05-14T01:18:31.492Z,67.52
2023-05-14T01:23:33.583Z,67.43
2023-05-14T01:28:37.625Z,67.36
2023-05-14T01:33:42.409Z,67.68
2023-05-14T01:38:47.275Z,67.15
2023-05-14T01:43:49.458Z,66.90
2023-05-14T01:48:51.302Z,66.76
2023-05-14T01:53:53.420Z,67.15
2023-05-14T01:58:57.628Z,67.44
2023-05-14T02:03:59.811Z,67.25
2023-05-14T02:09:02.532Z,66.78
2023-05-14T02:14:04.393Z,66.99
2023-05-14T02:19:06.461Z,67.24
2023-05-14T02:24:08.335Z,67.52
2023-05-14T02:29:10.508Z,67.20
2023-05-14T02:34:12.288Z,67.69
2023-05-14T02:39:14.069Z,67.92
2023-05-14T02:44:15.883Z,67.78
2023-05-14T02:49:17.700Z,67.50
2023-05-14T02:54:19.428Z,67.65
2023-05-14T02:59:21.932Z,67.62
2023-05-14T03:04:24.016Z,67.49
2023-05-14T03:09:25.790Z,67.45
2023-05-14T03:14:27.531Z,67.70
2023-05-14T03:19:29.314Z,67.21
2023-05-14T03:24:31.595Z,67.56
2023-05-14T03:29:33.363Z,67.67
2023-05-14T03:34:35.322Z,67.67
2023-05-14T03:39:37.225Z,67.65
2023-05-14T03:44:39.820Z,67.66
2023-05-14T03:49:41.648Z,67.77
2023-05-14T03:54:45.907Z,67.83
2023-05-14T03:59:47.754Z,67.93
2023-05-14T04:04:49.560Z,67.29
2023-05-14T04:09:56.970Z,67.55
2023-05-14T04:14:58.930Z,67.54
2023-05-14T04:20:00.899Z,67.26
2023-05-14T04:25:02.655Z,67.66
2023-05-14T04:30:04.847Z,67.04
2023-05-14T04:35:07.346Z,67.01
2023-05-14T04:40:11.398Z,66.96
2023-05-14T04:45:13.652Z,67.28
2023-05-14T04:50:15.855Z,66.98
2023-05-14T04:55:17.629Z,67.19
2023-05-14T05:00:22.021Z,66.90
2023-05-14T05:05:24.535Z,66.55
2023-05-14T05:10:26.425Z,66.69
2023-05-14T05:15:28.487Z,66.14
2023-05-14T05:20:30.299Z,66.46
2023-05-14T05:25:32.115Z,66.19
2023-05-14T05:30:34.176Z,65.87
2023-05-14T05:35:35.939Z,65.91
2023-05-14T05:40:37.790Z,65.70
2023-05-14T05:45:39.628Z,65.61
2023-05-14T05:50:41.389Z,64.96
2023-05-14T05:55:43.162Z,64.69
2023-05-14T06:00:45.697Z,64.87
2023-05-14T06:05:47.580Z,64.30
2023-05-14T06:10:49.639Z,64.57
2023-05-14T06:15:51.360Z,64.63
2023-05-14T06:20:53.104Z,64.71
2023-05-14T06:25:54.902Z,64.33
2023-05-14T06:30:56.745Z,63.48
2023-05-14T06:35:59.814Z,63.61
2023-05-14T06:41:01.601Z,62.84
2023-05-14T06:46:03.595Z,62.50
2023-05-14T06:51:05.411Z,62.04
2023-05-14T06:56:07.951Z,61.69
2023-05-14T07:01:09.793Z,61.12
2023-05-14T07:06:13.531Z,60.95
2023-05-14T07:11:15.565Z,61.63
2023-05-14T07:16:17.350Z,59.77
2023-05-14T07:21:19.366Z,57.76
2023-05-14T07:26:21.543Z,57.17
2023-05-14T07:31:23.524Z,56.43
2023-05-14T07:36:25.366Z,55.34
2023-05-14T07:41:27.142Z,53.45
2023-05-14T07:46:28.954Z,53.29
2023-05-14T07:51:33.451Z,51.12
2023-05-14T07:56:35.201Z,48.82
2023-05-14T08:01:39.156Z,49.36
2023-05-14T08:06:41.336Z,49.45
2023-05-14T08:11:44.124Z,49.30
2023-05-14T08:16:45.983Z,47.46
2023-05-14T08:21:48.050Z,46.43
2023-05-14T08:26:49.952Z,46.86
2023-05-14T08:31:51.780Z,44.85
2023-05-14T08:36:53.701Z,44.64
2023-05-14T08:41:59.488Z,43.93
2023-05-14T08:47:02.006Z,43.40
2023-05-14T08:52:04.275Z,42.42
2023-05-14T08:57:09.388Z,40.86
2023-05-14T09:02:14.766Z,39.75
2023-05-14T09:07:16.880Z,40.47
2023-05-14T09:12:18.995Z,40.35
2023-05-14T09:17:21.176Z,39.35
2023-05-14T09:22:22.983Z,38.98
2023-05-14T09:27:25.986Z,39.73
2023-05-14T09:32:27.810Z,37.17
2023-05-14T09:37:29.987Z,37.97
2023-05-14T09:42:31.726Z,37.50
2023-05-14T09:47:33.680Z,37.25
2023-05-14T09:52:35.665Z,36.31
2023-05-14T09:57:38.735Z,36.65
2023-05-14T10:02:43.061Z,38.16
2023-05-14T10:07:48.515Z,36.40
2023-05-14T10:13:04.751Z,36.30
2023-05-14T10:18:19.017Z,36.57
2023-05-14T10:23:20.863Z,36.67
2023-05-14T10:28:22.805Z,36.27
2023-05-14T10:33:24.589Z,34.74
2023-05-14T10:38:32.144Z,34.57
2023-05-14T10:43:38.538Z,35.94
2023-05-14T10:48:43.033Z,36.67
2023-05-14T10:53:44.918Z,36.58
2023-05-14T10:58:46.674Z,38.00
2023-05-14T11:03:53.458Z,35.88
2023-05-14T11:08:56.267Z,36.60
2023-05-14T11:13:58.196Z,37.38
2023-05-14T11:19:06.447Z,36.33
2023-05-14T11:24:08.320Z,36.20
2023-05-14T11:29:10.691Z,35.43
2023-05-14T11:34:12.422Z,36.69
2023-05-14T11:39:19.932Z,36.06
2023-05-14T11:44:22.585Z,36.37
2023-05-14T11:49:29.453Z,37.85
2023-05-14T11:54:32.357Z,36.19
2023-05-14T11:59:34.473Z,36.43
2023-05-14T12:04:36.721Z,36.89
2023-05-14T12:09:48.986Z,35.76
2023-05-14T12:14:51.182Z,37.18
2023-05-14T12:19:54.235Z,36.95
2023-05-14T12:24:58.237Z,37.39
2023-05-14T12:30:20.013Z,35.72
2023-05-14T12:35:23.598Z,34.11
2023-05-14T12:40:26.697Z,33.15
2023-05-14T12:45:29.283Z,33.77
2023-05-14T12:50:31.564Z,34.19
2023-05-14T12:55:34.480Z,32.91
2023-05-14T13:00:36.502Z,35.31
2023-05-14T13:05:38.289Z,33.39
2023-05-14T13:10:40.248Z,33.93
2023-05-14T13:15:42.485Z,32.50
2023-05-14T13:20:46.677Z,31.20
2023-05-14T13:25:51.695Z,31.25
2023-05-14T13:31:22.764Z,32.04
2023-05-14T13:36:24.748Z,32.33
2023-05-14T13:41:26.636Z,32.37
2023-05-14T13:46:28.510Z,31.43
2023-05-14T13:51:31.484Z,31.33
2023-05-14T13:56:33.290Z,32.09
2023-05-14T14:01:35.122Z,32.68
2023-05-14T14:06:37.076Z,33.60
2023-05-14T14:11:39.227Z,32.73
2023-05-14T14:16:41.103Z,32.72
2023-05-14T14:21:43.066Z,33.31
2023-05-14T14:26:44.924Z,32.52
2023-05-14T14:31:46.696Z,32.28
2023-05-14T14:36:48.550Z,32.95
2023-05-14T14:41:50.474Z,33.37
2023-05-14T14:46:52.222Z,33.18
2023-05-14T14:51:54.659Z,40.98
2023-05-14T14:56:56.600Z,48.38
2023-05-14T15:01:58.634Z,50.47
2023-05-14T15:07:02.108Z,50.69
2023-05-14T15:12:04.095Z,51.51
2023-05-14T15:17:05.950Z,50.09
2023-05-14T15:22:07.783Z,52.15
2023-05-14T15:27:09.594Z,52.01
2023-05-14T15:32:11.596Z,53.03
2023-05-14T15:37:13.321Z,55.19
2023-05-14T15:42:15.100Z,55.21
2023-05-14T15:47:16.897Z,54.53
2023-05-14T15:52:18.673Z,53.38
2023-05-14T15:57:20.390Z,55.36
2023-05-14T16:02:22.344Z,54.95
2023-05-14T16:07:24.242Z,55.05
2023-05-14T16:12:26.377Z,53.95
2023-05-14T16:17:28.606Z,52.90
2023-05-14T16:22:32.667Z,53.73
2023-05-14T16:27:34.724Z,54.10
2023-05-14T16:32:36.599Z,53.33
2023-05-14T16:37:38.411Z,53.61
2023-05-14T16:42:40.675Z,52.93
2023-05-14T16:47:42.575Z,53.74
2023-05-14T16:52:44.455Z,53.50
2023-05-14T16:57:46.242Z,53.93
2023-05-14T17:02:49.847Z,54.39
2023-05-14T17:07:51.728Z,54.63
2023-05-14T17:12:53.565Z,55.03
2023-05-14T17:17:56.067Z,55.25
2023-05-14T17:22:58.521Z,54.93
2023-05-14T17:28:00.578Z,54.57
2023-05-14T17:33:02.821Z,55.78
2023-05-14T17:38:04.818Z,56.25
2023-05-14T17:43:08.653Z,56.11
2023-05-14T17:48:10.571Z,56.16
2023-05-14T17:53:12.406Z,56.34
2023-05-14T17:58:15.546Z,57.56
2023-05-14T18:03:17.562Z,58.07
2023-05-14T18:08:19.570Z,58.38
2023-05-14T18:13:21.364Z,58.58
2023-05-14T18:18:24.088Z,58.60
2023-05-14T18:23:25.964Z,59.02
2023-05-14T18:28:27.992Z,58.08
2023-05-14T18:33:31.224Z,58.55
2023-05-14T18:38:32.967Z,59.27
2023-05-14T18:43:34.764Z,58.83
2023-05-14T18:48:38.128Z,59.54
2023-05-14T18:53:40.128Z,58.51
2023-05-14T18:58:41.872Z,60.32
2023-05-14T19:03:43.924Z,60.26
2023-05-14T19:08:46.542Z,56.51
2023-05-14T19:13:49.622Z,56.93
2023-05-14T19:18:51.541Z,54.28
2023-05-14T19:23:53.383Z,54.08
2023-05-14T19:28:58.589Z,54.79
2023-05-14T19:34:00.431Z,55.16
2023-05-14T19:39:02.192Z,55.77
2023-05-14T19:44:04.016Z,57.79
2023-05-14T19:49:06.151Z,58.88
2023-05-14T19:54:08.042Z,58.80
2023-05-14T19:59:09.836Z,58.84
2023-05-14T20:04:14.123Z,59.32
2023-05-14T20:09:15.889Z,59.03
2023-05-14T20:14:17.728Z,58.93
2023-05-14T20:19:21.402Z,59.59
2023-05-14T20:24:23.273Z,59.81
2023-05-14T20:29:25.071Z,60.11
2023-05-14T20:34:26.866Z,60.42
2023-05-14T20:39:28.603Z,60.41
2023-05-14T20:44:30.410Z,60.72
2023-05-14T20:49:32.132Z,60.82
2023-05-14T20:54:33.854Z,60.72
2023-05-14T20:59:35.707Z,61.00
2023-05-14T21:04:38.295Z,61.53
2023-05-14T21:09:40.739Z,61.80
2023-05-14T21:14:42.823Z,62.04
2023-05-14T21:19:44.610Z,61.75
2023-05-14T21:24:46.418Z,61.97
2023-05-14T21:29:48.196Z,62.33
2023-05-14T21:34:49.973Z,62.51
2023-05-14T21:39:51.945Z,62.84
2023-05-14T21:44:53.765Z,62.82
2023-05-14T21:49:55.500Z,62.70
2023-05-14T21:54:57.230Z,62.81
2023-05-14T21:59:58.939Z,63.01
2023-05-14T22:05:00.729Z,62.89
2023-05-14T22:10:02.455Z,62.81
2023-05-14T22:15:05.800Z,63.10
2023-05-14T22:20:09.714Z,62.61
2023-05-14T22:25:11.448Z,63.05
2023-05-14T22:30:13.378Z,63.37
2023-05-14T22:35:15.485Z,63.24
2023-05-14T22:40:17.274Z,63.47
2023-05-14T22:45:19.067Z,63.38
2023-05-14T22:50:20.855Z,63.85
2023-05-14T22:55:22.955Z,64.25
2023-05-14T23:00:25.331Z,64.38
2023-05-14T23:05:27.286Z,64.63
2023-05-14T23:10:29.642Z,64.60
2023-05-14T23:15:31.713Z,64.92
2023-05-14T23:20:33.507Z,64.99
2023-05-14T23:25:35.279Z,65.42
2023-05-14T23:30:37.001Z,65.76
2023-05-14T23:35:39.748Z,65.41
2023-05-14T23:40:41.560Z,65.78
2023-05-14T23:45:43.369Z,66.00
2023-05-14T23:50:45.246Z,65.68
2023-05-14T23:55:47.330Z,65.72
